Time;durP1;ratioP1;P1;durP2;ratioP2;P2;SDS_P1;SDS_P2;PMS_P1;PMS_P2;Temp;Humidity;BMP_temperature;BMP_pressure;BME280_temperature;BME280_humidity;BME280_pressure;Samples;Min_cycle;Max_cycle;Signal;HPM_P1;HPM_P2
2022/05/26 00:00:30;;;;;;;6.47;2.33;;;;;;;15.80;65.90;100923.19;4934789;29;20098;-78
2022/05/26 00:03:36;;;;;;;10.95;4.70;;;;;;;15.78;66.17;100925.09;4934679;29;20047;-78
2022/05/26 00:06:39;;;;;;;4.90;1.60;;;;;;;15.85;64.72;100920.22;4934747;29;20050;-78
2022/05/26 00:09:43;;;;;;;5.07;1.40;;;;;;;15.87;62.46;100918.34;4934885;29;20547;-78
2022/05/26 00:12:47;;;;;;;6.18;1.58;;;;;;;15.93;61.27;100924.03;4938365;29;20407;-78
2022/05/26 00:15:51;;;;;;;4.07;1.45;;;;;;;15.74;59.36;100923.59;4938604;29;20050;-78
2022/05/26 00:18:54;;;;;;;4.88;0.80;;;;;;;15.69;57.61;100918.63;4938752;29;20099;-78
2022/05/26 00:21:58;;;;;;;4.55;1.00;;;;;;;15.91;57.21;100920.66;4938490;29;20051;-78
2022/05/26 00:25:02;;;;;;;2.70;0.40;;;;;;;15.71;55.10;100923.81;4938392;29;20075;-78
2022/05/26 00:28:06;;;;;;;2.35;0.35;;;;;;;15.89;53.77;100912.03;4938103;29;20046;-77
2022/05/26 00:31:09;;;;;;;3.10;0.50;;;;;;;15.96;53.90;100915.94;4938110;29;20131;-78
2022/05/26 00:34:13;;;;;;;2.45;0.60;;;;;;;15.92;52.65;100917.09;4938278;29;20298;-78
2022/05/26 00:37:16;;;;;;;4.97;0.85;;;;;;;15.96;52.42;100918.56;4938203;29;20543;-78
2022/05/26 00:40:20;;;;;;;3.78;0.57;;;;;;;16.00;52.08;100925.31;4938116;29;20562;-78
2022/05/26 00:43:23;;;;;;;3.75;0.38;;;;;;;16.03;51.68;100916.34;4938024;29;20247;-78
2022/05/26 00:46:36;;;;;;;4.13;0.45;;;;;;;16.02;52.13;100919.94;4937831;29;20066;-78
2022/05/26 00:49:46;;;;;;;3.58;0.65;;;;;;;15.91;52.30;100918.03;4938012;29;20074;-79
2022/05/26 00:52:59;;;;;;;2.20;0.40;;;;;;;16.01;52.04;100920.88;4937928;29;20050;-78
2022/05/26 00:56:11;;;;;;;1.88;0.30;;;;;;;15.87;52.58;100918.34;4937605;29;20106;-78
2022/05/26 00:59:22;;;;;;;3.78;0.40;;;;;;;16.14;52.39;100929.63;4937676;29;20091;-78
2022/05/26 01:02:36;;;;;;;1.92;0.40;;;;;;;16.08;53.05;100926.56;4937831;29;20059;-78
2022/05/26 01:06:16;;;;;;;5.60;0.65;;;;;;;16.12;52.40;100922.78;4937577;29;20054;-78
2022/05/26 01:09:20;;;;;;;2.70;0.50;;;;;;;16.22;52.35;100929.09;4920456;29;20110;-78
2022/05/26 01:12:24;;;;;;;2.67;0.65;;;;;;;15.99;52.22;100928.06;4937469;29;20039;-78
2022/05/26 01:15:35;;;;;;;3.97;0.47;;;;;;;15.88;52.60;100936.69;4937590;29;20087;-78
2022/05/26 01:18:53;;;;;;;2.85;0.55;;;;;;;15.84;52.84;100932.56;4937552;29;20415;-78
2022/05/26 01:22:30;;;;;;;2.45;0.65;;;;;;;15.95;53.20;100935.34;4936785;29;20058;-78
2022/05/26 01:25:39;;;;;;;1.60;0.40;;;;;;;15.87;53.39;100931.53;4937137;29;20054;-78
2022/05/26 01:28:49;;;;;;;2.13;0.50;;;;;;;15.80;53.45;100934.59;4937000;29;20562;-78
2022/05/26 01:32:09;;;;;;;1.88;0.50;;;;;;;15.73;53.33;100938.59;4936424;29;20106;-78
2022/05/26 01:35:16;;;;;;;2.78;0.50;;;;;;;15.77;53.85;100933.94;4937293;29;20106;-78
2022/05/26 01:38:35;;;;;;;3.30;0.30;;;;;;;15.65;54.28;100945.28;4937004;29;20043;-78
2022/05/26 01:42:06;;;;;;;4.63;0.40;;;;;;;15.53;54.78;100953.03;4937016;29;20066;-78
2022/05/26 01:45:20;;;;;;;7.22;0.75;;;;;;;15.63;54.42;100941.88;4937025;29;20463;-77
2022/05/26 01:48:53;;;;;;;4.70;0.70;;;;;;;15.59;54.82;100942.09;4936959;29;20054;-78
2022/05/26 01:52:07;;;;;;;2.50;0.38;;;;;;;15.54;55.11;100949.47;4936894;29;20054;-78
2022/05/26 01:55:10;;;;;;;1.95;0.20;;;;;;;15.53;55.19;100947.78;4936886;29;20495;-80
2022/05/26 01:58:26;;;;;;;4.10;0.73;;;;;;;15.51;55.73;100939.13;4936544;29;20095;-78
2022/05/26 02:01:35;;;;;;;3.85;0.40;;;;;;;15.51;55.91;100936.50;4937012;29;20109;-78
2022/05/26 02:04:46;;;;;;;1.08;0.22;;;;;;;15.44;56.16;100937.84;4936590;29;20054;-78
2022/05/26 02:07:52;;;;;;;2.45;0.40;;;;;;;15.38;56.63;100948.81;4936389;29;20155;-78
2022/05/26 02:11:17;;;;;;;2.40;0.50;;;;;;;15.35;56.74;100939.31;4936566;29;20070;-78
2022/05/26 02:14:31;;;;;;;3.33;0.47;;;;;;;15.31;57.34;100948.34;4941814;29;20062;-78
2022/05/26 02:17:41;;;;;;;2.45;0.47;;;;;;;15.34;56.94;100955.19;4955506;29;20090;-78
2022/05/26 02:20:49;;;;;;;1.38;0.30;;;;;;;15.56;56.52;100942.28;4955477;29;20616;-78
2022/05/26 02:24:01;;;;;;;3.03;0.30;;;;;;;15.33;57.39;100953.53;4955150;29;20161;-79
2022/05/26 02:27:06;;;;;;;8.40;0.68;;;;;;;15.33;57.80;100948.25;4955193;29;20050;-78
2022/05/26 02:30:12;;;;;;;2.22;0.52;;;;;;;15.50;58.13;100939.22;4955230;29;20093;-78
2022/05/26 02:33:17;;;;;;;2.35;0.40;;;;;;;15.58;58.65;100937.78;4954854;28;20046;-78
2022/05/26 02:36:24;;;;;;;1.73;0.30;;;;;;;15.63;58.58;100941.88;4955172;29;20109;-78
2022/05/26 02:39:27;;;;;;;1.90;0.35;;;;;;;15.57;59.59;100938.72;4946212;29;20055;-78
2022/05/26 02:42:30;;;;;;;3.58;0.45;;;;;;;15.36;59.75;100937.50;4935816;29;20043;-78
2022/05/26 02:46:10;;;;;;;1.75;0.30;;;;;;;15.26;60.50;100945.16;4946294;29;20122;-78
2022/05/26 02:49:42;;;;;;;1.98;0.40;;;;;;;15.33;60.58;100942.97;4935940;29;20074;-78
2022/05/26 02:53:11;;;;;;;2.80;0.40;;;;;;;15.41;60.84;100945.09;4935584;29;20047;-78
2022/05/26 02:56:37;;;;;;;1.98;0.30;;;;;;;15.40;61.19;100954.81;4935575;29;20135;-78
2022/05/26 02:59:56;;;;;;;4.07;0.40;;;;;;;15.38;62.28;100956.72;4935588;29;20047;-78
2022/05/26 03:03:08;;;;;;;2.38;0.55;;;;;;;15.37;62.63;100952.38;4935874;29;20403;-78
2022/05/26 03:06:18;;;;;;;2.30;0.35;;;;;;;15.38;62.43;100953.19;4935430;29;20081;-78
2022/05/26 03:09:23;;;;;;;5.95;0.50;;;;;;;15.29;63.29;100952.88;4935445;29;20055;-78
2022/05/26 03:12:33;;;;;;;2.95;0.50;;;;;;;15.19;63.83;100954.44;4935788;29;20106;-78
2022/05/26 03:15:38;;;;;;;3.58;0.70;;;;;;;14.96;64.54;100963.78;4935322;29;20050;-78
2022/05/26 03:18:41;;;;;;;2.85;0.47;;;;;;;15.00;65.00;100964.47;4935377;29;20051;-78
2022/05/26 03:21:46;;;;;;;2.22;0.30;;;;;;;14.92;65.86;100959.66;4935146;29;20139;-78
2022/05/26 03:24:51;;;;;;;2.70;0.40;;;;;;;14.61;66.94;100968.63;4934964;29;20058;-78
2022/05/26 03:27:54;;;;;;;3.60;1.27;;;;;;;14.70;66.40;100972.47;4935174;29;20658;-78
2022/05/26 03:30:58;;;;;;;2.10;0.30;;;;;;;14.74;66.48;100980.09;4935196;29;20087;-78
2022/05/26 03:40:52;;;;;;;4.13;0.43;;;;;;;14.67;67.20;100970.03;4935172;29;20106;-78
2022/05/26 03:43:59;;;;;;;1.83;0.68;;;;;;;14.65;67.40;100976.25;4935041;29;20483;-78
2022/05/26 03:47:03;;;;;;;3.05;0.38;;;;;;;14.78;66.21;100981.59;4935167;29;20134;-78
2022/05/26 03:50:07;;;;;;;2.92;0.32;;;;;;;14.73;66.98;100982.81;4934668;29;20047;-78
2022/05/26 03:53:11;;;;;;;1.25;0.30;;;;;;;14.62;68.06;100976.44;4934836;29;20042;-78
2022/05/26 03:56:15;;;;;;;2.75;0.52;;;;;;;14.60;67.58;100991.47;4935150;29;20091;-78
2022/05/26 03:59:19;;;;;;;2.03;0.45;;;;;;;14.58;68.38;100990.75;4934921;29;20058;-78
2022/05/26 04:02:22;;;;;;;4.57;0.50;;;;;;;14.46;69.31;100996.72;4935105;29;20130;-78
2022/05/26 04:05:26;;;;;;;10.68;0.60;;;;;;;14.51;68.66;100997.28;4934683;29;20118;-78
2022/05/26 04:08:29;;;;;;;2.92;0.60;;;;;;;14.54;68.50;100998.91;4934630;29;20427;-78
2022/05/26 04:11:33;;;;;;;2.03;0.43;;;;;;;14.56;68.70;101003.13;4935018;29;20145;-78
2022/05/26 04:14:36;;;;;;;1.05;0.30;;;;;;;14.48;68.28;100999.25;4934785;29;20042;-78
2022/05/26 04:17:41;;;;;;;2.70;0.55;;;;;;;14.60;68.42;101009.91;4934617;29;20145;-78
2022/05/26 04:20:44;;;;;;;4.38;0.50;;;;;;;14.57;69.54;101009.25;4934926;29;20047;-78
2022/05/26 04:23:48;;;;;;;2.15;0.28;;;;;;;14.66;68.95;101016.56;4934319;29;20063;-78
2022/05/26 04:26:51;;;;;;;3.97;0.40;;;;;;;14.70;69.54;101015.44;4934733;29;20042;-78
2022/05/26 04:29:55;;;;;;;4.10;0.50;;;;;;;14.78;69.23;101025.50;4934561;29;20055;-78
2022/05/26 04:32:59;;;;;;;3.17;0.50;;;;;;;14.86;68.92;101036.41;4934484;29;20102;-78
2022/05/26 04:36:04;;;;;;;2.33;0.30;;;;;;;14.77;69.99;101036.97;4934556;29;20054;-78
2022/05/26 04:39:08;;;;;;;2.33;0.52;;;;;;;14.80;69.79;101036.78;4934392;29;20310;-78
2022/05/26 04:42:12;;;;;;;3.97;0.50;;;;;;;14.88;69.53;101040.63;4934891;29;20429;-78
2022/05/26 04:45:16;;;;;;;2.08;0.30;;;;;;;14.94;69.91;101039.41;4934665;29;20047;-78
2022/05/26 04:48:21;;;;;;;1.60;0.35;;;;;;;14.99;70.25;101052.28;4934037;29;20051;-78
2022/05/26 04:51:25;;;;;;;2.20;0.50;;;;;;;14.85;70.89;101045.25;4932923;29;20111;-78
2022/05/26 04:54:29;;;;;;;2.95;0.30;;;;;;;14.88;70.69;101045.06;4934485;29;20486;-78
2022/05/26 04:57:33;;;;;;;2.22;0.30;;;;;;;15.01;70.28;101055.66;4935874;29;20135;-78
2022/05/26 05:00:36;;;;;;;2.08;0.30;;;;;;;15.15;70.13;101058.28;4937803;29;20450;-78
2022/05/26 05:03:40;;;;;;;1.45;0.38;;;;;;;15.15;70.26;101060.06;4937626;29;20114;-78
2022/05/26 05:06:44;;;;;;;2.22;0.35;;;;;;;15.21;70.41;101057.03;4937979;29;20050;-78
2022/05/26 05:09:48;;;;;;;3.80;0.40;;;;;;;15.23;70.14;101061.28;4937643;29;20095;-78
2022/05/26 05:12:56;;;;;;;1.40;0.30;;;;;;;15.38;69.79;101053.34;4937598;29;20137;-78
2022/05/26 05:16:15;;;;;;;5.18;0.57;;;;;;;15.45;68.11;101054.66;4937376;29;20574;-78
2022/05/26 05:19:18;;;;;;;1.20;0.28;;;;;;;15.50;69.85;101069.19;4937456;29;20107;-78
2022/05/26 05:22:29;;;;;;;2.15;0.45;;;;;;;15.35;68.19;101075.47;4937389;29;20472;-78
2022/05/26 05:25:38;;;;;;;3.55;0.40;;;;;;;15.30;66.93;101080.19;4937603;29;20572;-78
2022/05/26 05:28:48;;;;;;;1.67;0.47;;;;;;;15.34;66.99;101079.03;4937092;29;20098;-78
2022/05/26 05:32:08;;;;;;;2.20;0.45;;;;;;;15.39;65.99;101076.13;4937090;29;20058;-78
2022/05/26 05:35:17;;;;;;;2.90;0.40;;;;;;;15.14;65.40;101087.34;4937090;29;20135;-78
2022/05/26 05:38:21;;;;;;;6.47;0.67;;;;;;;15.01;65.51;101085.47;4593248;28;10000106;-78
2022/05/26 05:41:27;;;;;;;1.38;0.22;;;;;;;15.05;65.19;101086.13;4937047;29;20798;-78
2022/05/26 05:44:32;;;;;;;3.25;0.60;;;;;;;15.11;64.72;101083.97;4936864;29;20042;-78
2022/05/26 05:47:36;;;;;;;2.55;0.63;;;;;;;15.03;64.71;101082.78;4936916;29;20131;-78
2022/05/26 05:50:39;;;;;;;2.72;0.38;;;;;;;15.06;65.01;101085.19;4936753;29;20050;-78
2022/05/26 05:53:44;;;;;;;4.38;0.63;;;;;;;15.21;64.27;101099.19;4936026;29;20074;-78
2022/05/26 05:56:48;;;;;;;2.53;0.40;;;;;;;15.25;64.14;101100.69;4936765;29;20087;-79
2022/05/26 05:59:51;;;;;;;2.22;0.30;;;;;;;15.18;64.08;101100.22;4936386;29;20043;-78
2022/05/26 06:02:55;;;;;;;3.13;0.50;;;;;;;15.25;64.27;101098.94;4936631;29;20053;-78
2022/05/26 06:05:59;;;;;;;3.35;0.55;;;;;;;15.25;64.02;101105.97;4936710;29;20077;-78
2022/05/26 06:09:03;;;;;;;2.58;0.40;;;;;;;15.22;64.51;101098.25;4936353;29;20054;-78
2022/05/26 06:12:07;;;;;;;2.83;1.05;;;;;;;15.09;65.00;101104.31;4936750;29;20046;-78
2022/05/26 06:15:11;;;;;;;2.13;0.35;;;;;;;15.24;64.50;101105.13;4936361;29;20536;-78
2022/05/26 06:18:16;;;;;;;1.23;0.17;;;;;;;15.39;63.95;101105.94;4936330;29;20099;-78
2022/05/26 06:21:19;;;;;;;1.83;0.40;;;;;;;15.36;63.96;101103.50;4936307;29;20050;-78
2022/05/26 06:24:25;;;;;;;2.70;0.50;;;;;;;15.26;64.27;101107.66;4936029;29;20059;-77
2022/05/26 06:30:50;;;;;;;4.43;1.15;;;;;;;15.45;63.61;101123.16;4936374;29;20051;-77
2022/05/26 06:37:16;;;;;;;4.93;0.50;;;;;;;15.58;62.38;101124.09;4947597;28;20056;-78
2022/05/26 06:40:20;;;;;;;4.30;0.93;;;;;;;15.54;62.99;101120.81;4954827;29;20046;-79
2022/05/26 06:43:23;;;;;;;3.22;0.50;;;;;;;15.41;63.12;101125.16;4954796;29;20553;-78
2022/05/26 06:46:26;;;;;;;3.00;0.40;;;;;;;15.67;62.71;101122.69;4964732;28;20455;-77
2022/05/26 06:49:32;;;;;;;1.63;0.50;;;;;;;15.61;62.35;101150.25;4952843;29;20051;-78
2022/05/26 06:52:36;;;;;;;2.65;0.60;;;;;;;15.65;62.68;101135.09;4955105;29;20546;-77
2022/05/26 06:55:42;;;;;;;3.60;0.93;;;;;;;15.67;62.23;101134.06;4952967;29;20134;-77
2022/05/26 06:58:46;;;;;;;4.10;0.70;;;;;;;15.88;62.16;101142.38;4954282;29;20510;-77
2022/05/26 07:01:49;;;;;;;1.80;0.40;;;;;;;16.00;62.35;101133.69;4953358;29;20182;-78
2022/05/26 07:04:52;;;;;;;3.05;0.60;;;;;;;16.12;60.75;101141.75;4954795;29;20094;-77
2022/05/26 07:07:57;;;;;;;3.25;0.68;;;;;;;16.08;61.41;101149.03;4954885;29;20110;-78
2022/05/26 07:11:01;;;;;;;2.40;0.63;;;;;;;16.17;60.76;101152.81;4954450;29;20054;-77
2022/05/26 07:14:04;;;;;;;3.00;0.70;;;;;;;16.13;60.61;101157.47;4954387;29;20463;-78
2022/05/26 07:17:08;;;;;;;2.58;0.50;;;;;;;16.14;60.71;101166.22;4954066;29;20337;-78
2022/05/26 07:20:11;;;;;;;4.65;1.02;;;;;;;16.25;60.07;101166.38;4953881;28;20066;-78
2022/05/26 07:43:21;;;;;;;2.40;0.57;;;;;;;16.27;60.16;101181.16;5088327;28;20089;-75
2022/05/26 07:46:26;;;;;;;2.83;0.70;;;;;;;16.43;59.84;101190.69;5088394;28;20063;-73
2022/05/26 07:49:29;;;;;;;2.33;0.68;;;;;;;16.77;61.02;101170.81;5102409;28;20828;-73
2022/05/26 07:52:33;;;;;;;5.30;1.30;;;;;;;17.04;58.47;101185.72;5109059;28;20114;-73
2022/05/26 07:55:38;;;;;;;6.10;0.75;;;;;;;17.24;59.46;101171.16;5108565;28;20131;-73
2022/05/26 07:58:43;;;;;;;5.80;0.90;;;;;;;17.48;57.89;101179.16;5095182;28;20196;-75
2022/05/26 08:01:48;;;;;;;6.18;0.73;;;;;;;17.67;56.42;101168.94;5108775;28;20074;-72
2022/05/26 08:04:51;;;;;;;3.90;1.02;;;;;;;17.63;56.44;101167.47;5108469;28;20050;-76
2022/05/26 08:07:54;;;;;;;2.92;0.90;;;;;;;17.68;57.27;101170.66;5108597;28;20503;-69
2022/05/26 08:10:58;;;;;;;3.28;0.70;;;;;;;17.51;56.56;101179.75;5108280;28;20047;-76
2022/05/26 08:14:01;;;;;;;2.55;0.65;;;;;;;17.38;56.54;101184.22;5108477;28;20042;-75
2022/05/26 08:17:05;;;;;;;4.22;0.95;;;;;;;17.29;57.05;101195.44;5108365;28;20054;-74
2022/05/26 08:20:10;;;;;;;5.90;1.00;;;;;;;16.85;57.90;101202.84;5108614;28;20065;-83
2022/05/26 08:23:13;;;;;;;3.35;0.75;;;;;;;16.89;58.21;101214.91;5108237;28;20045;-80
2022/05/26 08:26:18;;;;;;;3.05;1.10;;;;;;;16.73;58.06;101203.66;5089238;28;20093;-82
2022/05/26 08:29:21;;;;;;;3.00;1.20;;;;;;;16.85;57.71;101204.66;5087683;28;20087;-82
2022/05/26 08:32:26;;;;;;;3.72;0.88;;;;;;;16.79;58.22;101213.84;5087828;28;20522;-82
2022/05/26 08:35:32;;;;;;;4.18;0.90;;;;;;;17.13;57.47;101208.88;5062865;28;20588;-82
2022/05/26 08:38:38;;;;;;;3.67;0.88;;;;;;;17.17;57.15;101220.94;5053008;28;20044;-82
2022/05/26 08:41:46;;;;;;;7.47;2.03;;;;;;;17.14;57.17;101218.53;5053923;28;20055;-81
2022/05/26 08:44:53;;;;;;;6.22;1.13;;;;;;;16.93;57.42;101226.09;5053922;28;20044;-83
2022/05/26 08:47:57;;;;;;;4.03;0.98;;;;;;;16.85;58.21;101226.63;5053819;28;20036;-84
2022/05/26 08:51:03;;;;;;;4.50;0.90;;;;;;;16.63;58.58;101234.25;5052560;28;20131;-82
2022/05/26 08:54:10;;;;;;;4.97;1.02;;;;;;;16.68;57.89;101226.88;5053064;28;20052;-85
2022/05/26 08:57:23;;;;;;;5.65;1.48;;;;;;;16.48;59.08;101247.50;5053840;28;20551;-85
2022/05/26 09:00:27;;;;;;;4.32;0.98;;;;;;;16.56;58.55;101233.84;5053675;28;20509;-83
2022/05/26 09:03:35;;;;;;;4.95;1.30;;;;;;;16.44;58.61;101242.56;5054099;28;20564;-83
2022/05/26 09:14:03;;;;;;;3.42;0.90;;;;;;;16.59;58.79;101244.19;5053303;28;20401;-82
2022/05/26 09:17:24;;;;;;;4.07;1.27;;;;;;;16.68;59.37;101250.63;5053647;28;20048;-83
2022/05/26 09:20:39;;;;;;;5.85;1.05;;;;;;;16.95;59.29;101259.41;5053279;28;20082;-85
2022/05/26 09:23:48;;;;;;;2.42;0.73;;;;;;;17.18;58.78;101259.63;5053332;28;20044;-83
2022/05/26 09:27:00;;;;;;;4.13;1.92;;;;;;;17.37;56.97;101248.63;5053394;28;20095;-85
2022/05/26 09:35:13;;;;;;;5.53;1.10;;;;;;;17.26;55.92;101254.69;5040285;28;20159;-85
2022/05/26 09:38:30;;;;;;;3.88;0.93;;;;;;;17.34;55.63;101262.06;5053005;28;20528;-84
2022/05/26 09:41:39;;;;;;;4.07;0.98;;;;;;;17.57;55.73;101257.81;5053134;28;20103;-84
2022/05/26 09:44:59;;;;;;;3.83;0.90;;;;;;;17.91;54.04;101250.19;5053062;28;20044;-78
2022/05/26 09:48:17;;;;;;;7.72;1.55;;;;;;;18.03;53.45;101254.59;5052121;28;20075;-76
2022/05/26 09:51:42;;;;;;;4.72;0.85;;;;;;;18.00;53.36;101260.13;5057265;28;20047;-78
2022/05/26 09:55:32;;;;;;;4.75;1.05;;;;;;;18.00;53.79;101274.19;5053044;28;20099;-79
2022/05/26 09:58:44;;;;;;;4.72;0.80;;;;;;;17.95;54.06;101267.53;5053172;28;20418;-74
2022/05/26 10:01:47;;;;;;;4.72;1.48;;;;;;;17.81;53.61;101281.75;5053152;28;20048;-77
2022/05/26 10:05:05;;;;;;;4.15;1.15;;;;;;;17.74;53.64;101280.44;5052846;28;20044;-77
2022/05/26 10:08:36;;;;;;;4.07;1.30;;;;;;;17.50;54.95;101272.44;5053078;28;20460;-79
2022/05/26 10:12:07;;;;;;;5.05;1.55;;;;;;;17.56;55.42;101278.13;5053025;28;20079;-79
2022/05/26 10:15:44;;;;;;;5.00;1.17;;;;;;;17.51;55.15;101271.47;5052971;28;20080;-77
2022/05/26 10:19:41;;;;;;;5.07;1.00;;;;;;;17.73;54.42;101274.28;5052680;28;20460;-88
2022/05/26 10:22:51;;;;;;;4.35;1.20;;;;;;;18.28;52.96;101270.41;5052870;28;20102;-75
2022/05/26 10:26:01;;;;;;;3.88;0.85;;;;;;;18.60;51.55;101259.22;5052339;28;20082;-82
2022/05/26 10:32:53;;;;;;;4.63;1.40;;;;;;;18.52;52.89;101264.25;3262322;26;20497;-77
2022/05/26 10:36:09;;;;;;;4.25;0.80;;;;;;;18.28;52.33;101272.19;5011700;28;20527;-77
2022/05/26 10:39:46;;;;;;;4.88;1.10;;;;;;;18.25;52.76;101269.75;5011174;28;20190;-77
2022/05/26 10:42:59;;;;;;;2.95;0.88;;;;;;;18.20;53.50;101282.50;5012763;28;20048;-77
2022/05/26 10:46:06;;;;;;;4.50;1.45;;;;;;;18.13;52.89;101282.94;5013180;28;20049;-78
2022/05/26 10:49:26;;;;;;;3.17;0.77;;;;;;;18.12;53.24;101277.72;5012697;28;20040;-78
2022/05/26 10:52:32;;;;;;;3.75;1.00;;;;;;;17.89;53.26;101282.88;5012777;28;20141;-77
2022/05/26 10:55:47;;;;;;;5.40;0.93;;;;;;;17.86;53.97;101280.44;5012617;28;20049;-77
2022/05/26 10:59:33;;;;;;;3.97;1.10;;;;;;;17.83;54.87;101279.81;5012241;28;20052;-77
2022/05/26 11:02:52;;;;;;;3.20;0.80;;;;;;;18.00;54.05;101281.28;4989548;28;20049;-77
2022/05/26 11:06:23;;;;;;;5.00;1.20;;;;;;;18.23;52.89;101272.53;4992695;28;20053;-77
2022/05/26 11:09:41;;;;;;;4.82;1.40;;;;;;;18.53;51.60;101268.56;4990092;28;20109;-77
2022/05/26 11:12:56;;;;;;;3.53;1.13;;;;;;;18.54;51.27;101254.41;4993471;28;20049;-77
2022/05/26 11:20:02;;;;;;;3.78;0.75;;;;;;;18.66;51.89;101255.28;4992585;28;20077;-78
2022/05/26 11:23:07;;;;;;;4.07;1.13;;;;;;;18.52;50.66;101267.75;4987099;28;20405;-78
2022/05/26 11:26:33;;;;;;;4.43;0.90;;;;;;;18.64;50.56;101255.41;4992653;28;20146;-78
2022/05/26 11:29:44;;;;;;;5.90;1.23;;;;;;;18.66;50.37;101257.91;4992720;28;20460;-78
2022/05/26 11:36:14;;;;;;;;;;;;;;;18.36;51.62;101260.06;4993656;28;20049;-78
2022/05/26 11:39:36;;;;;;;4.85;1.58;;;;;;;18.65;50.95;101262.38;4994361;28;20423;-77
2022/05/26 11:42:51;;;;;;;5.67;1.07;;;;;;;18.84;49.95;101242.50;4992612;28;20141;-78
2022/05/26 11:45:57;;;;;;;5.38;1.20;;;;;;;18.87;48.78;101247.56;4990523;28;20043;-79
2022/05/26 11:49:01;;;;;;;6.70;1.55;;;;;;;19.15;48.45;101246.31;4992699;28;20037;-78
2022/05/26 11:52:11;;;;;;;2.47;0.77;;;;;;;19.51;47.66;101234.63;4992482;28;20452;-78
2022/05/26 11:55:48;;;;;;;2.90;0.90;;;;;;;19.37;47.24;101240.16;4992525;28;20069;-77
2022/05/26 11:59:42;;;;;;;3.95;0.85;;;;;;;19.53;47.31;101232.72;4984940;28;20049;-77
2022/05/26 12:02:51;;;;;;;3.72;1.08;;;;;;;19.48;47.74;101240.16;4979728;28;20142;-78
2022/05/26 12:06:15;;;;;;;4.43;1.00;;;;;;;19.72;46.80;101232.97;4991493;28;20128;-78
2022/05/26 12:09:27;;;;;;;6.60;1.73;;;;;;;19.82;45.95;101234.91;4988355;28;20049;-78
2022/05/26 12:12:34;;;;;;;3.97;1.27;;;;;;;19.35;46.83;101231.50;4995705;28;20100;-79
2022/05/26 12:16:03;;;;;;;4.55;1.35;;;;;;;19.60;46.68;101238.38;4996138;28;20057;-78
2022/05/26 12:19:11;;;;;;;5.57;1.33;;;;;;;20.13;44.18;101242.06;4989966;28;20068;-78
2022/05/26 12:22:23;;;;;;;4.93;1.13;;;;;;;20.23;43.68;101251.91;4990989;28;20457;-78
2022/05/26 12:25:27;;;;;;;4.88;0.95;;;;;;;20.07;43.54;101247.00;4995698;28;20101;-78
2022/05/26 12:28:33;;;;;;;4.38;1.00;;;;;;;19.86;43.71;101238.97;4995634;28;20089;-78
2022/05/26 12:31:56;;;;;;;4.65;0.88;;;;;;;19.95;44.66;101236.44;4983917;28;20448;-78
2022/05/26 12:35:03;;;;;;;4.18;0.85;;;;;;;20.17;44.30;101235.53;4995490;28;20061;-78
2022/05/26 12:38:31;;;;;;;3.10;0.98;;;;;;;20.24;43.66;101235.88;4995554;28;20503;-78
2022/05/26 12:41:47;;;;;;;3.63;0.75;;;;;;;20.77;42.67;101229.75;4987220;28;20044;-78
2022/05/26 12:45:15;;;;;;;3.85;0.90;;;;;;;20.58;42.63;101225.13;4987524;28;20166;-78
2022/05/26 12:48:40;;;;;;;3.20;0.98;;;;;;;20.00;43.59;101220.13;4995303;28;20085;-78
2022/05/26 12:51:44;;;;;;;4.40;0.90;;;;;;;19.89;44.93;101228.97;4995251;28;20132;-78
2022/05/26 12:55:28;;;;;;;5.90;1.15;;;;;;;19.88;44.49;101234.41;4995469;28;20041;-78
2022/05/26 12:58:31;;;;;;;;;;;;;;;20.07;44.65;101221.34;4995953;28;20481;-77
2022/05/26 13:01:35;;;;;;;3.78;0.95;;;;;;;20.18;44.93;101221.28;4995179;28;20403;-75
2022/05/26 13:04:38;;;;;;;4.82;1.48;;;;;;;20.36;44.82;101228.72;4995112;28;20053;-75
2022/05/26 13:07:46;;;;;;;4.60;0.98;;;;;;;20.19;44.49;101230.09;4995205;28;20065;-75
2022/05/26 13:10:55;;;;;;;7.25;1.17;;;;;;;20.07;44.54;101220.47;4995083;28;20046;-75
2022/05/26 13:14:06;;;;;;;5.13;1.33;;;;;;;20.19;44.13;101215.00;4995099;28;20053;-75
2022/05/26 13:17:12;;;;;;;4.72;1.20;;;;;;;20.93;42.73;101218.69;4994833;28;20088;-75
2022/05/26 13:20:30;;;;;;;4.00;0.98;;;;;;;22.10;40.01;101204.88;4995065;28;20130;-75
2022/05/26 13:23:33;;;;;;;5.40;1.35;;;;;;;22.98;39.09;101208.38;4992750;28;20042;-75
2022/05/26 13:26:36;;;;;;;3.13;1.00;;;;;;;22.18;40.93;101204.22;4995144;28;20045;-75
2022/05/26 13:29:46;;;;;;;3.75;0.98;;;;;;;20.87;43.26;101217.41;4994654;28;20124;-75
2022/05/26 13:36:22;;;;;;;5.88;1.25;;;;;;;20.22;45.35;101203.28;4991018;28;20048;-75
2022/05/26 13:39:26;;;;;;;8.30;1.45;;;;;;;20.03;46.16;101205.75;4994570;28;20052;-75
2022/05/26 13:42:31;;;;;;;4.70;1.27;;;;;;;20.10;45.75;101205.16;4995789;28;20061;-75
2022/05/26 13:45:36;;;;;;;4.78;1.48;;;;;;;20.23;45.57;101206.78;4994167;28;20073;-74
2022/05/26 13:48:45;;;;;;;6.68;1.45;;;;;;;20.72;45.10;101200.09;4982198;28;20448;-75
2022/05/26 13:51:54;;;;;;;4.20;0.93;;;;;;;20.74;44.30;101198.13;4994506;28;20413;-75
2022/05/26 13:55:06;;;;;;;17.80;1.60;;;;;;;20.64;44.41;101190.97;4994425;28;20050;-74
2022/05/26 13:58:19;;;;;;;5.47;1.10;;;;;;;20.47;44.79;101180.00;5008660;28;20049;-74
2022/05/26 14:01:25;;;;;;;4.30;1.10;;;;;;;20.23;45.63;101183.75;5020756;28;20107;-74
2022/05/26 14:04:42;;;;;;;5.55;1.45;;;;;;;20.33;45.37;101183.84;5033145;28;20399;-74
2022/05/26 14:07:59;;;;;;;6.00;1.35;;;;;;;20.27;46.10;101187.84;5032491;28;20510;-75
2022/05/26 14:11:04;;;;;;;4.47;1.23;;;;;;;20.88;44.89;101181.88;5033031;28;20047;-75
2022/05/26 14:14:30;;;;;;;3.55;1.17;;;;;;;21.79;42.55;101169.50;5033009;28;20080;-75
2022/05/26 14:17:38;;;;;;;7.03;1.15;;;;;;;22.73;39.91;101162.66;5020775;28;20124;-75
2022/05/26 14:20:41;;;;;;;6.18;1.65;;;;;;;22.47;39.70;101164.25;5033205;28;20052;-74
2022/05/26 14:23:57;;;;;;;4.25;1.27;;;;;;;22.75;37.83;101159.88;5033092;28;20102;-75
2022/05/26 14:27:08;;;;;;;4.35;1.27;;;;;;;22.94;38.41;101151.84;5032773;28;20561;-75
2022/05/26 14:30:37;;;;;;;4.07;1.20;;;;;;;23.77;35.95;101154.56;5033639;28;20064;-75
2022/05/26 14:34:03;;;;;;;5.65;3.78;;;;;;;26.06;31.98;101129.16;5020309;28;20195;-75
2022/05/26 14:37:08;;;;;;;4.90;1.60;;;;;;;28.70;28.56;101142.09;5032977;28;20044;-75
2022/05/26 14:40:14;;;;;;;5.80;1.70;;;;;;;29.20;26.92;101121.72;5032796;28;20068;-76
2022/05/26 14:43:21;;;;;;;4.40;1.20;;;;;;;30.81;24.99;101113.09;5032529;28;20045;-75
2022/05/26 14:46:25;;;;;;;3.83;1.30;;;;;;;30.08;25.58;101117.06;5032781;28;20103;-76
2022/05/26 14:49:28;;;;;;;5.82;1.70;;;;;;;28.62;27.49;101112.59;5032865;28;20403;-77
2022/05/26 14:52:32;;;;;;;4.63;1.10;;;;;;;29.37;26.99;101104.31;5032646;28;20040;-76
2022/05/26 14:55:38;;;;;;;4.68;1.63;;;;;;;27.92;28.59;101111.00;5032406;28;20044;-80
2022/05/26 14:58:43;;;;;;;5.38;1.90;;;;;;;26.72;30.71;101113.88;5032714;28;20124;-76
2022/05/26 15:01:46;;;;;;;5.65;1.73;;;;;;;28.52;28.04;101094.84;5032625;28;20502;-76
2022/05/26 15:04:49;;;;;;;4.50;1.40;;;;;;;29.68;26.95;101087.06;5032562;28;20126;-78
2022/05/26 15:07:53;;;;;;;3.88;1.05;;;;;;;30.23;25.29;101082.81;5032885;28;20556;-78
2022/05/26 15:10:56;;;;;;;4.82;1.60;;;;;;;26.49;31.88;101089.63;4999421;28;20053;-77
2022/05/26 15:14:00;;;;;;;4.25;1.50;;;;;;;29.70;27.92;101084.16;4993120;28;20620;-76
2022/05/26 15:17:12;;;;;;;3.55;1.17;;;;;;;25.86;32.56;101101.03;4992613;28;20041;-77
2022/05/26 15:20:18;;;;;;;3.85;1.38;;;;;;;26.77;31.48;101089.22;4993191;28;20579;-77
2022/05/26 15:23:22;;;;;;;3.85;1.50;;;;;;;28.36;28.92;101081.53;4992035;28;20132;-77
2022/05/26 15:26:26;;;;;;;3.10;1.27;;;;;;;30.12;25.62;101088.69;4992763;28;20102;-80
2022/05/26 15:29:32;;;;;;;3.25;1.27;;;;;;;25.77;30.75;101091.25;4993025;28;20497;-80
2022/05/26 15:32:39;;;;;;;3.60;1.50;;;;;;;24.45;34.64;101099.75;5002468;28;20136;-80
2022/05/26 15:35:42;;;;;;;4.55;1.33;;;;;;;22.32;38.05;101110.53;4974795;28;20054;-79
2022/05/26 15:38:50;;;;;;;5.28;1.33;;;;;;;22.30;38.90;101099.19;4973842;28;20042;-79
2022/05/26 15:41:54;;;;;;;5.50;1.30;;;;;;;22.65;38.24;101103.03;4973564;28;20134;-79
2022/05/26 15:44:57;;;;;;;3.85;1.13;;;;;;;24.46;34.54;101088.03;4973201;28;20117;-79